This is the latest recevied weather packets stored in our database for station/object DO1AA. If no packets are shown the sender has not sent any weather packets the latest 10 day(s).
| Time | Temp. | Humidity | Pressure | Rain* | Wind** | Luminosity | Snow |
|---|---|---|---|---|---|---|---|
| 1777331403 | 8.33° C | 64% | 1010.1 hPa | 0 mm | - | - | - |
| 1777328403 | 9.44° C | 61% | 1009.8 hPa | 0 mm | - | - | - |
| 1777327205 | 10° C | 59% | 1009.7 hPa | 0 mm | - | - | - |
| 1777317004 | 11.67° C | 54% | 1009.4 hPa | 0 mm | - | - | - |
| 1777312808 | 13.89° C | 51% | 1009 hPa | 0 mm | - | - | - |
| 1777308003 | 17.78° C | 38% | 1008.9 hPa | 0 mm | - | - | - |
| 1777301407 | 17.78° C | 37% | 1009.2 hPa | 0 mm | - | - | - |
| 1777297806 | 17.22° C | 38% | 1009.8 hPa | 0 mm | - | - | - |
| 1777297204 | 17.78° C | 36% | 1010 hPa | 0 mm | - | - | - |
| 1777296003 | 17.78° C | 36% | 1010 hPa | 0 mm | - | - | - |
| 1777291204 | 17.78° C | 38% | 1010.4 hPa | 0 mm | - | - | - |
| 1777290604 | 17.22° C | 37% | 1010.5 hPa | 0 mm | - | - | - |
| 1777290004 | 17.78° C | 37% | 1010.6 hPa | 0 mm | - | - | - |
| 1777287604 | 16.67° C | 39% | 1010.7 hPa | 0 mm | - | - | - |
| 1777280405 | 15.56° C | 42% | 1011.6 hPa | 0 mm | - | - | - |
| 1777279204 | 14.44° C | 44% | 1011.7 hPa | 0 mm | - | - | - |
| 1777274404 | 11.67° C | 60% | 1011.7 hPa | 0 mm | - | - | - |
| 1777267208 | 5° C | 79% | 1011.7 hPa | 0 mm | - | - | - |
| 1777265406 | 1.11° C | 90% | 1011.4 hPa | 0 mm | - | - | - |
| 1777261804 | -1.11° C | 95% | 1011.5 hPa | 0 mm | - | - | - |
| 1777261203 | -1.11° C | 94% | 1011.5 hPa | 0 mm | - | - | - |
| 1777259406 | -0.56° C | 93% | 1011.5 hPa | 0 mm | - | - | - |
| 1777255203 | 0° C | 92% | 1011.3 hPa | 0 mm | - | - | - |
| 1777246804 | 1.67° C | 86% | 1011.7 hPa | 0 mm | - | - | - |
| 1777239603 | 3.33° C | 80% | 1011.9 hPa | 0 mm | - | - | - |
* Rain latest hour (hover to see other rain measurements)
** Current wind speed in m/s (hover to see current wind gust speed)